sensor_id;sensor_type;location;lat;lon;timestamp;pressure;altitude;pressure_sealevel;temperature;humidity
31044;BME280;17710;52.520;13.352;2023-02-27T00:00:39;102315.97;;;5.41;46.55
31044;BME280;17710;52.520;13.352;2023-02-27T00:03:06;102324.63;;;5.31;46.69
31044;BME280;17710;52.520;13.352;2023-02-27T00:05:32;102318.34;;;5.16;47.39
31044;BME280;17710;52.520;13.352;2023-02-27T00:07:59;102314.88;;;5.20;47.43
31044;BME280;17710;52.520;13.352;2023-02-27T00:10:25;102313.84;;;5.08;47.73
31044;BME280;17710;52.520;13.352;2023-02-27T00:12:51;102320.16;;;5.24;47.30
31044;BME280;17710;52.520;13.352;2023-02-27T00:15:19;102320.22;;;5.30;47.21
31044;BME280;17710;52.520;13.352;2023-02-27T00:17:46;102327.06;;;5.17;47.41
31044;BME280;17710;52.520;13.352;2023-02-27T00:20:15;102326.06;;;5.07;47.80
31044;BME280;17710;52.520;13.352;2023-02-27T00:22:43;102321.63;;;5.00;48.01
31044;BME280;17710;52.520;13.352;2023-02-27T00:25:10;102326.41;;;4.64;48.41
31044;BME280;17710;52.520;13.352;2023-02-27T00:27:37;102323.06;;;4.75;48.51
31044;BME280;17710;52.520;13.352;2023-02-27T00:30:04;102327.41;;;4.75;48.99
31044;BME280;17710;52.520;13.352;2023-02-27T00:32:33;102328.19;;;4.68;48.80
31044;BME280;17710;52.520;13.352;2023-02-27T00:35:00;102318.66;;;4.71;49.02
31044;BME280;17710;52.520;13.352;2023-02-27T00:37:27;102319.78;;;4.93;47.73
31044;BME280;17710;52.520;13.352;2023-02-27T00:39:53;102322.56;;;5.04;47.94
31044;BME280;17710;52.520;13.352;2023-02-27T00:42:20;102325.53;;;5.36;47.63
31044;BME280;17710;52.520;13.352;2023-02-27T00:44:46;102323.66;;;5.22;47.97
31044;BME280;17710;52.520;13.352;2023-02-27T00:47:13;102331.53;;;5.24;47.52
31044;BME280;17710;52.520;13.352;2023-02-27T00:49:40;102327.81;;;5.05;48.22
31044;BME280;17710;52.520;13.352;2023-02-27T00:52:07;102327.50;;;4.81;48.53
31044;BME280;17710;52.520;13.352;2023-02-27T00:54:34;102320.63;;;4.89;48.60
31044;BME280;17710;52.520;13.352;2023-02-27T00:57:00;102320.59;;;4.88;48.82
31044;BME280;17710;52.520;13.352;2023-02-27T00:59:27;102320.97;;;5.19;48.03
31044;BME280;17710;52.520;13.352;2023-02-27T01:01:53;102323.72;;;5.32;47.91
31044;BME280;17710;52.520;13.352;2023-02-27T01:04:20;102313.94;;;5.15;47.76
31044;BME280;17710;52.520;13.352;2023-02-27T01:06:47;102318.44;;;5.27;47.45
31044;BME280;17710;52.520;13.352;2023-02-27T01:09:14;102312.16;;;5.13;47.67
31044;BME280;17710;52.520;13.352;2023-02-27T01:11:40;102317.47;;;5.19;47.51
31044;BME280;17710;52.520;13.352;2023-02-27T01:14:06;102317.22;;;4.96;48.58
31044;BME280;17710;52.520;13.352;2023-02-27T01:16:33;102313.75;;;4.97;48.53
31044;BME280;17710;52.520;13.352;2023-02-27T01:19:00;102318.00;;;4.89;48.30
31044;BME280;17710;52.520;13.352;2023-02-27T01:21:26;102310.91;;;4.82;48.65
31044;BME280;17710;52.520;13.352;2023-02-27T01:23:54;102305.66;;;4.79;48.77
31044;BME280;17710;52.520;13.352;2023-02-27T01:26:20;102309.22;;;4.84;48.96
31044;BME280;17710;52.520;13.352;2023-02-27T01:28:46;102309.38;;;4.99;48.60
31044;BME280;17710;52.520;13.352;2023-02-27T01:31:13;102307.41;;;4.81;49.09
31044;BME280;17710;52.520;13.352;2023-02-27T01:33:40;102305.69;;;4.82;49.30
31044;BME280;17710;52.520;13.352;2023-02-27T01:36:07;102305.81;;;4.91;49.80
31044;BME280;17710;52.520;13.352;2023-02-27T01:38:33;102295.78;;;4.60;49.69
31044;BME280;17710;52.520;13.352;2023-02-27T01:41:01;102309.06;;;4.75;50.10
31044;BME280;17710;52.520;13.352;2023-02-27T01:43:30;102313.81;;;4.38;50.27
31044;BME280;17710;52.520;13.352;2023-02-27T01:45:56;102308.69;;;4.46;50.01
31044;BME280;17710;52.520;13.352;2023-02-27T01:48:27;102306.94;;;4.47;50.01
31044;BME280;17710;52.520;13.352;2023-02-27T01:50:57;102301.91;;;4.59;50.64
31044;BME280;17710;52.520;13.352;2023-02-27T01:53:27;102301.28;;;4.81;50.03
31044;BME280;17710;52.520;13.352;2023-02-27T01:55:59;102299.34;;;4.66;49.77
31044;BME280;17710;52.520;13.352;2023-02-27T01:58:27;102300.31;;;4.71;49.85
31044;BME280;17710;52.520;13.352;2023-02-27T02:00:54;102307.56;;;4.94;49.27
31044;BME280;17710;52.520;13.352;2023-02-27T02:03:24;102306.50;;;4.76;49.13
31044;BME280;17710;52.520;13.352;2023-02-27T02:05:54;102307.81;;;5.12;48.95
31044;BME280;17710;52.520;13.352;2023-02-27T02:08:23;102301.63;;;5.07;48.40
31044;BME280;17710;52.520;13.352;2023-02-27T02:10:52;102305.81;;;4.94;48.84
31044;BME280;17710;52.520;13.352;2023-02-27T02:13:20;102304.06;;;4.93;48.82
31044;BME280;17710;52.520;13.352;2023-02-27T02:15:59;102305.75;;;4.88;49.30
31044;BME280;17710;52.520;13.352;2023-02-27T02:18:34;102300.38;;;4.76;49.61
31044;BME280;17710;52.520;13.352;2023-02-27T02:21:31;102300.31;;;4.73;49.31
31044;BME280;17710;52.520;13.352;2023-02-27T02:24:33;102307.97;;;4.58;50.00
31044;BME280;17710;52.520;13.352;2023-02-27T02:27:20;102310.28;;;4.36;50.04
31044;BME280;17710;52.520;13.352;2023-02-27T02:33:27;102306.91;;;4.44;50.73
31044;BME280;17710;52.520;13.352;2023-02-27T02:36:21;102314.66;;;4.37;50.61
31044;BME280;17710;52.520;13.352;2023-02-27T02:42:10;102321.47;;;4.25;51.78
31044;BME280;17710;52.520;13.352;2023-02-27T02:44:40;102318.88;;;4.26;52.25
31044;BME280;17710;52.520;13.352;2023-02-27T02:47:19;102320.31;;;4.09;52.57
31044;BME280;17710;52.520;13.352;2023-02-27T02:49:54;102318.72;;;4.17;52.44
31044;BME280;17710;52.520;13.352;2023-02-27T02:52:26;102316.25;;;4.28;51.72
31044;BME280;17710;52.520;13.352;2023-02-27T02:55:01;102336.88;;;4.07;52.36
31044;BME280;17710;52.520;13.352;2023-02-27T02:57:32;102329.19;;;4.17;52.75
31044;BME280;17710;52.520;13.352;2023-02-27T03:00:05;102333.50;;;4.15;53.11
31044;BME280;17710;52.520;13.352;2023-02-27T03:02:38;102331.09;;;4.29;52.23
31044;BME280;17710;52.520;13.352;2023-02-27T03:05:08;102333.75;;;4.30;52.35
31044;BME280;17710;52.520;13.352;2023-02-27T03:07:40;102331.97;;;4.28;52.46
31044;BME280;17710;52.520;13.352;2023-02-27T03:10:11;102335.56;;;4.33;52.23
31044;BME280;17710;52.520;13.352;2023-02-27T03:12:43;102340.09;;;4.45;52.74
31044;BME280;17710;52.520;13.352;2023-02-27T03:15:14;102345.63;;;4.10;52.83
31044;BME280;17710;52.520;13.352;2023-02-27T03:17:45;102340.56;;;4.19;53.08
31044;BME280;17710;52.520;13.352;2023-02-27T03:20:18;102350.13;;;4.17;53.07
31044;BME280;17710;52.520;13.352;2023-02-27T03:22:49;102339.81;;;4.26;52.22
31044;BME280;17710;52.520;13.352;2023-02-27T03:25:18;102353.59;;;4.16;52.00
31044;BME280;17710;52.520;13.352;2023-02-27T03:27:50;102366.53;;;4.09;53.10
31044;BME280;17710;52.520;13.352;2023-02-27T03:30:21;102357.41;;;4.36;51.92
31044;BME280;17710;52.520;13.352;2023-02-27T03:32:52;102357.25;;;4.26;52.20
31044;BME280;17710;52.520;13.352;2023-02-27T03:35:23;102355.50;;;4.28;52.40
31044;BME280;17710;52.520;13.352;2023-02-27T03:37:56;102355.25;;;4.68;50.95
31044;BME280;17710;52.520;13.352;2023-02-27T03:40:27;102354.44;;;4.71;50.57
31044;BME280;17710;52.520;13.352;2023-02-27T03:43:01;102356.00;;;4.58;49.96
31044;BME280;17710;52.520;13.352;2023-02-27T03:45:33;102358.09;;;4.84;49.41
31044;BME280;17710;52.520;13.352;2023-02-27T03:48:02;102359.91;;;4.89;49.59
31044;BME280;17710;52.520;13.352;2023-02-27T03:50:30;102366.03;;;4.90;49.44
31044;BME280;17710;52.520;13.352;2023-02-27T03:52:57;102374.81;;;4.92;49.71
31044;BME280;17710;52.520;13.352;2023-02-27T03:55:26;102375.44;;;4.75;49.88
31044;BME280;17710;52.520;13.352;2023-02-27T03:57:55;102379.50;;;4.55;50.15
31044;BME280;17710;52.520;13.352;2023-02-27T04:00:24;102379.63;;;4.63;50.30
31044;BME280;17710;52.520;13.352;2023-02-27T04:02:53;102379.16;;;4.32;50.46
31044;BME280;17710;52.520;13.352;2023-02-27T04:05:21;102376.06;;;4.58;50.00
31044;BME280;17710;52.520;13.352;2023-02-27T04:08:07;102384.09;;;4.73;49.85
31044;BME280;17710;52.520;13.352;2023-02-27T04:10:49;102379.69;;;4.69;49.95
31044;BME280;17710;52.520;13.352;2023-02-27T04:13:36;102379.66;;;4.66;50.30
31044;BME280;17710;52.520;13.352;2023-02-27T04:16:23;102378.78;;;4.67;50.29
31044;BME280;17710;52.520;13.352;2023-02-27T04:19:06;102390.31;;;4.78;49.96
31044;BME280;17710;52.520;13.352;2023-02-27T04:21:42;102387.75;;;4.82;49.70
31044;BME280;17710;52.520;13.352;2023-02-27T04:24:21;102391.16;;;4.75;49.54
31044;BME280;17710;52.520;13.352;2023-02-27T04:26:58;102394.69;;;4.79;50.11
31044;BME280;17710;52.520;13.352;2023-02-27T04:29:37;102391.94;;;4.70;49.93
31044;BME280;17710;52.520;13.352;2023-02-27T04:32:14;102392.03;;;4.76;50.33
31044;BME280;17710;52.520;13.352;2023-02-27T04:34:48;102390.22;;;4.72;50.43
31044;BME280;17710;52.520;13.352;2023-02-27T04:37:21;102391.03;;;4.68;50.44
31044;BME280;17710;52.520;13.352;2023-02-27T04:39:52;102394.66;;;4.76;50.13
31044;BME280;17710;52.520;13.352;2023-02-27T04:42:23;102394.38;;;4.58;50.15
31044;BME280;17710;52.520;13.352;2023-02-27T04:44:55;102403.44;;;4.81;49.41
31044;BME280;17710;52.520;13.352;2023-02-27T04:47:28;102400.56;;;4.63;50.06
31044;BME280;17710;52.520;13.352;2023-02-27T04:50:00;102410.13;;;4.61;50.84
31044;BME280;17710;52.520;13.352;2023-02-27T04:52:30;102400.72;;;4.72;50.02
31044;BME280;17710;52.520;13.352;2023-02-27T04:55:00;102396.09;;;4.56;50.36
31044;BME280;17710;52.520;13.352;2023-02-27T04:57:31;102397.56;;;4.38;51.05
31044;BME280;17710;52.520;13.352;2023-02-27T05:00:02;102401.66;;;4.23;52.04
31044;BME280;17710;52.520;13.352;2023-02-27T05:02:35;102398.88;;;4.14;52.05
31044;BME280;17710;52.520;13.352;2023-02-27T05:05:06;102398.34;;;3.83;53.16
31044;BME280;17710;52.520;13.352;2023-02-27T05:07:37;102403.94;;;4.03;52.63
31044;BME280;17710;52.520;13.352;2023-02-27T05:10:06;102404.84;;;4.05;51.93
31044;BME280;17710;52.520;13.352;2023-02-27T05:12:37;102403.59;;;4.34;51.81
31044;BME280;17710;52.520;13.352;2023-02-27T05:15:08;102406.72;;;4.12;52.29
31044;BME280;17710;52.520;13.352;2023-02-27T05:17:43;102400.75;;;4.19;52.80
31044;BME280;17710;52.520;13.352;2023-02-27T05:20:11;102403.38;;;4.21;52.49
31044;BME280;17710;52.520;13.352;2023-02-27T05:22:45;102414.25;;;3.95;52.52
31044;BME280;17710;52.520;13.352;2023-02-27T05:25:14;102407.88;;;3.80;53.58
31044;BME280;17710;52.520;13.352;2023-02-27T05:27:49;102405.91;;;3.68;54.11
31044;BME280;17710;52.520;13.352;2023-02-27T05:30:18;102413.16;;;3.38;54.99
31044;BME280;17710;52.520;13.352;2023-02-27T05:32:50;102410.13;;;3.61;54.46
31044;BME280;17710;52.520;13.352;2023-02-27T05:35:22;102408.41;;;3.60;54.85
31044;BME280;17710;52.520;13.352;2023-02-27T05:37:52;102413.22;;;3.41;55.19
31044;BME280;17710;52.520;13.352;2023-02-27T05:40:23;102422.84;;;3.43;55.20
31044;BME280;17710;52.520;13.352;2023-02-27T05:42:56;102423.34;;;3.69;54.84
31044;BME280;17710;52.520;13.352;2023-02-27T05:45:27;102427.09;;;3.38;55.50
31044;BME280;17710;52.520;13.352;2023-02-27T05:47:59;102433.88;;;3.72;54.75
31044;BME280;17710;52.520;13.352;2023-02-27T05:50:29;102446.72;;;3.60;55.04
31044;BME280;17710;52.520;13.352;2023-02-27T05:53:00;102436.22;;;3.58;55.45
31044;BME280;17710;52.520;13.352;2023-02-27T05:55:31;102425.81;;;3.60;55.44
31044;BME280;17710;52.520;13.352;2023-02-27T05:58:06;102423.97;;;3.56;55.13
31044;BME280;17710;52.520;13.352;2023-02-27T06:00:37;102434.19;;;3.44;55.76
31044;BME280;17710;52.520;13.352;2023-02-27T06:03:06;102446.53;;;3.51;55.18
31044;BME280;17710;52.520;13.352;2023-02-27T06:05:34;102455.94;;;3.43;55.96
31044;BME280;17710;52.520;13.352;2023-02-27T06:08:01;102443.75;;;3.87;54.64
31044;BME280;17710;52.520;13.352;2023-02-27T06:10:28;102444.19;;;4.11;53.87
31044;BME280;17710;52.520;13.352;2023-02-27T06:12:54;102455.63;;;4.16;53.76
31044;BME280;17710;52.520;13.352;2023-02-27T06:15:20;102453.84;;;4.15;53.60
31044;BME280;17710;52.520;13.352;2023-02-27T06:17:47;102459.50;;;4.38;53.16
31044;BME280;17710;52.520;13.352;2023-02-27T06:20:22;102457.06;;;3.99;53.68
31044;BME280;17710;52.520;13.352;2023-02-27T06:22:48;102460.44;;;3.95;53.71
31044;BME280;17710;52.520;13.352;2023-02-27T06:25:15;102465.31;;;3.75;54.43
31044;BME280;17710;52.520;13.352;2023-02-27T06:27:42;102472.13;;;4.12;53.59
31044;BME280;17710;52.520;13.352;2023-02-27T06:30:09;102469.75;;;4.26;53.08
31044;BME280;17710;52.520;13.352;2023-02-27T06:32:35;102469.03;;;4.34;53.29
31044;BME280;17710;52.520;13.352;2023-02-27T06:35:02;102473.72;;;4.52;52.41
31044;BME280;17710;52.520;13.352;2023-02-27T06:37:30;102461.78;;;4.18;53.66
31044;BME280;17710;52.520;13.352;2023-02-27T06:39:57;102469.03;;;4.34;53.24
31044;BME280;17710;52.520;13.352;2023-02-27T06:42:23;102470.72;;;4.31;52.83
31044;BME280;17710;52.520;13.352;2023-02-27T06:44:50;102473.72;;;4.54;52.95
31044;BME280;17710;52.520;13.352;2023-02-27T06:47:16;102481.66;;;4.58;52.82
31044;BME280;17710;52.520;13.352;2023-02-27T06:49:43;102474.63;;;4.56;52.38
31044;BME280;17710;52.520;13.352;2023-02-27T06:52:09;102478.19;;;4.61;52.56
31044;BME280;17710;52.520;13.352;2023-02-27T06:54:37;102471.31;;;4.66;52.67
31044;BME280;17710;52.520;13.352;2023-02-27T06:57:03;102479.97;;;4.62;52.78
31044;BME280;17710;52.520;13.352;2023-02-27T06:59:30;102486.56;;;4.91;51.62
31044;BME280;17710;52.520;13.352;2023-02-27T07:01:57;102497.88;;;4.90;51.87
31044;BME280;17710;52.520;13.352;2023-02-27T07:04:24;102484.78;;;4.90;51.91
31044;BME280;17710;52.520;13.352;2023-02-27T07:06:51;102498.00;;;4.98;51.65
31044;BME280;17710;52.520;13.352;2023-02-27T07:09:18;102507.72;;;5.05;51.46
31044;BME280;17710;52.520;13.352;2023-02-27T07:11:45;102513.97;;;5.14;50.92
31044;BME280;17710;52.520;13.352;2023-02-27T07:14:11;102522.47;;;5.00;50.71
31044;BME280;17710;52.520;13.352;2023-02-27T07:16:40;102522.59;;;5.07;51.58
31044;BME280;17710;52.520;13.352;2023-02-27T07:19:07;102527.56;;;5.48;51.81
31044;BME280;17710;52.520;13.352;2023-02-27T07:21:33;102532.88;;;5.54;50.97
31044;BME280;17710;52.520;13.352;2023-02-27T07:24:00;102525.06;;;5.58;50.75
31044;BME280;17710;52.520;13.352;2023-02-27T07:26:27;102532.94;;;5.58;50.66
31044;BME280;17710;52.520;13.352;2023-02-27T07:28:55;102528.91;;;5.85;51.21
31044;BME280;17710;52.520;13.352;2023-02-27T07:31:21;102535.03;;;5.85;51.15
31044;BME280;17710;52.520;13.352;2023-02-27T07:33:47;102544.47;;;5.71;50.97
31044;BME280;17710;52.520;13.352;2023-02-27T07:36:14;102544.59;;;5.80;50.81
31044;BME280;17710;52.520;13.352;2023-02-27T07:38:40;102538.66;;;5.90;50.50
31044;BME280;17710;52.520;13.352;2023-02-27T07:41:07;102534.16;;;5.85;50.73
31044;BME280;17710;52.520;13.352;2023-02-27T07:43:33;102535.19;;;5.97;50.98
31044;BME280;17710;52.520;13.352;2023-02-27T07:46:01;102525.53;;;5.90;51.07
31044;BME280;17710;52.520;13.352;2023-02-27T07:48:28;102538.88;;;6.10;50.97
31044;BME280;17710;52.520;13.352;2023-02-27T07:50:55;102545.25;;;6.35;51.13
31044;BME280;17710;52.520;13.352;2023-02-27T07:53:21;102543.31;;;6.19;50.79
31044;BME280;17710;52.520;13.352;2023-02-27T07:55:47;102538.25;;;6.34;50.89
31044;BME280;17710;52.520;13.352;2023-02-27T07:58:14;102545.38;;;6.47;50.35
31044;BME280;17710;52.520;13.352;2023-02-27T08:00:40;102551.44;;;6.40;50.46
31044;BME280;17710;52.520;13.352;2023-02-27T08:03:08;102546.72;;;6.09;50.38
31044;BME280;17710;52.520;13.352;2023-02-27T08:05:35;102545.06;;;6.17;50.77
31044;BME280;17710;52.520;13.352;2023-02-27T08:08:02;102541.84;;;6.45;50.79
31044;BME280;17710;52.520;13.352;2023-02-27T08:10:28;102540.22;;;6.56;50.16
31044;BME280;17710;52.520;13.352;2023-02-27T08:12:55;102545.31;;;6.39;50.22
31044;BME280;17710;52.520;13.352;2023-02-27T08:15:22;102551.72;;;6.69;50.61
31044;BME280;17710;52.520;13.352;2023-02-27T08:17:48;102549.28;;;6.89;50.02
31044;BME280;17710;52.520;13.352;2023-02-27T08:20:16;102545.78;;;6.93;49.72
31044;BME280;17710;52.520;13.352;2023-02-27T08:22:46;102552.75;;;6.88;49.04
31044;BME280;17710;52.520;13.352;2023-02-27T08:25:13;102555.22;;;6.71;50.04
31044;BME280;17710;52.520;13.352;2023-02-27T08:27:39;102556.22;;;6.85;49.46
31044;BME280;17710;52.520;13.352;2023-02-27T08:30:08;102558.13;;;7.03;49.18
31044;BME280;17710;52.520;13.352;2023-02-27T08:32:35;102560.59;;;6.82;50.01
31044;BME280;17710;52.520;13.352;2023-02-27T08:35:03;102563.50;;;7.18;49.25
31044;BME280;17710;52.520;13.352;2023-02-27T08:37:31;102566.16;;;7.19;48.96
31044;BME280;17710;52.520;13.352;2023-02-27T08:39:57;102559.06;;;7.08;49.81
31044;BME280;17710;52.520;13.352;2023-02-27T08:42:24;102558.28;;;7.21;48.98
31044;BME280;17710;52.520;13.352;2023-02-27T08:44:50;102561.94;;;7.44;48.68
31044;BME280;17710;52.520;13.352;2023-02-27T08:47:17;102562.06;;;7.66;48.41
31044;BME280;17710;52.520;13.352;2023-02-27T08:49:43;102557.59;;;7.52;48.33
31044;BME280;17710;52.520;13.352;2023-02-27T08:52:09;102566.25;;;7.33;48.93
31044;BME280;17710;52.520;13.352;2023-02-27T08:54:37;102558.63;;;7.83;48.17
31044;BME280;17710;52.520;13.352;2023-02-27T08:57:04;102556.00;;;7.80;47.54
31044;BME280;17710;52.520;13.352;2023-02-27T08:59:31;102563.13;;;8.10;47.18
31044;BME280;17710;52.520;13.352;2023-02-27T09:01:57;102566.66;;;8.18;47.06
31044;BME280;17710;52.520;13.352;2023-02-27T09:04:24;102561.34;;;8.08;46.87
31044;BME280;17710;52.520;13.352;2023-02-27T09:06:50;102558.00;;;8.45;46.72
31044;BME280;17710;52.520;13.352;2023-02-27T09:09:17;102563.25;;;8.39;46.67
31044;BME280;17710;52.520;13.352;2023-02-27T09:11:45;102560.66;;;8.53;46.23
31044;BME280;17710;52.520;13.352;2023-02-27T09:14:12;102559.75;;;8.51;46.46
31044;BME280;17710;52.520;13.352;2023-02-27T09:16:38;102558.03;;;8.68;45.91
31044;BME280;17710;52.520;13.352;2023-02-27T09:19:05;102554.50;;;8.55;46.04
31044;BME280;17710;52.520;13.352;2023-02-27T09:21:32;102559.75;;;8.46;46.25
31044;BME280;17710;52.520;13.352;2023-02-27T09:23:58;102566.78;;;8.49;46.14
31044;BME280;17710;52.520;13.352;2023-02-27T09:26:24;102572.03;;;8.47;46.29
31044;BME280;17710;52.520;13.352;2023-02-27T09:28:52;102572.09;;;8.59;46.04
31044;BME280;17710;52.520;13.352;2023-02-27T09:31:19;102581.72;;;8.66;45.88
31044;BME280;17710;52.520;13.352;2023-02-27T09:33:45;102583.44;;;8.35;46.01
31044;BME280;17710;52.520;13.352;2023-02-27T09:36:12;102573.66;;;8.15;46.59
31044;BME280;17710;52.520;13.352;2023-02-27T09:38:38;102578.97;;;8.28;47.38
31044;BME280;17710;52.520;13.352;2023-02-27T09:41:06;102589.66;;;8.65;46.06
31044;BME280;17710;52.520;13.352;2023-02-27T09:43:36;102586.13;;;8.58;45.22
31044;BME280;17710;52.520;13.352;2023-02-27T09:46:08;102580.00;;;8.88;45.24
31044;BME280;17710;52.520;13.352;2023-02-27T09:48:44;102576.50;;;9.01;44.31
31044;BME280;17710;52.520;13.352;2023-02-27T09:51:13;102578.25;;;8.96;43.92
31044;BME280;17710;52.520;13.352;2023-02-27T09:53:41;102584.41;;;9.23;42.58
31044;BME280;17710;52.520;13.352;2023-02-27T09:56:16;102587.00;;;9.26;42.19
31044;BME280;17710;52.520;13.352;2023-02-27T09:58:46;102585.25;;;9.43;41.98
31044;BME280;17710;52.520;13.352;2023-02-27T10:01:20;102584.34;;;9.56;42.00
31044;BME280;17710;52.520;13.352;2023-02-27T10:04:17;102593.97;;;9.77;41.33
31044;BME280;17710;52.520;13.352;2023-02-27T10:06:51;102592.28;;;9.50;41.71
31044;BME280;17710;52.520;13.352;2023-02-27T10:09:28;102587.91;;;9.38;42.29
31044;BME280;17710;52.520;13.352;2023-02-27T10:12:08;102602.84;;;9.38;42.52
31044;BME280;17710;52.520;13.352;2023-02-27T10:14:41;102604.56;;;9.52;41.79
31044;BME280;17710;52.520;13.352;2023-02-27T10:17:16;102604.63;;;9.45;42.12
31044;BME280;17710;52.520;13.352;2023-02-27T10:19:45;102600.19;;;9.56;42.29
31044;BME280;17710;52.520;13.352;2023-02-27T10:22:19;102605.41;;;9.80;41.03
31044;BME280;17710;52.520;13.352;2023-02-27T10:24:49;102596.63;;;9.75;40.76
31044;BME280;17710;52.520;13.352;2023-02-27T10:27:19;102594.72;;;10.23;39.99
31044;BME280;17710;52.520;13.352;2023-02-27T10:29:45;102594.63;;;10.39;39.39
31044;BME280;17710;52.520;13.352;2023-02-27T10:32:18;102599.03;;;10.42;37.77
31044;BME280;17710;52.520;13.352;2023-02-27T10:34:50;102598.91;;;10.57;37.52
31044;BME280;17710;52.520;13.352;2023-02-27T10:37:20;102599.97;;;10.29;37.89
31044;BME280;17710;52.520;13.352;2023-02-27T10:39:50;102597.00;;;10.77;37.67
31044;BME280;17710;52.520;13.352;2023-02-27T10:42:18;102598.50;;;11.13;36.01
31044;BME280;17710;52.520;13.352;2023-02-27T10:44:44;102598.81;;;10.74;35.49
31044;BME280;17710;52.520;13.352;2023-02-27T10:47:14;102604.59;;;11.23;35.44
31044;BME280;17710;52.520;13.352;2023-02-27T10:49:42;102606.34;;;11.23;34.76
31044;BME280;17710;52.520;13.352;2023-02-27T10:52:10;102607.34;;;11.09;34.22
31044;BME280;17710;52.520;13.352;2023-02-27T10:54:36;102609.09;;;11.10;33.34
31044;BME280;17710;52.520;13.352;2023-02-27T10:57:06;102609.81;;;11.29;32.97
31044;BME280;17710;52.520;13.352;2023-02-27T10:59:50;102601.25;;;11.01;33.03
31044;BME280;17710;52.520;13.352;2023-02-27T11:02:24;102605.56;;;11.13;32.31
31044;BME280;17710;52.520;13.352;2023-02-27T11:04:53;102611.69;;;11.16;32.23
31044;BME280;17710;52.520;13.352;2023-02-27T11:07:31;102612.72;;;11.02;31.71
31044;BME280;17710;52.520;13.352;2023-02-27T11:10:15;102610.88;;;11.10;32.45
31044;BME280;17710;52.520;13.352;2023-02-27T11:12:56;102601.09;;;11.19;31.44
31044;BME280;17710;52.520;13.352;2023-02-27T11:15:25;102599.34;;;11.18;31.40
31044;BME280;17710;52.520;13.352;2023-02-27T11:17:53;102603.81;;;11.12;31.96
31044;BME280;17710;52.520;13.352;2023-02-27T11:20:32;102601.22;;;11.04;32.37
31044;BME280;17710;52.520;13.352;2023-02-27T11:23:02;102599.34;;;11.17;32.36
31044;BME280;17710;52.520;13.352;2023-02-27T11:25:29;102599.34;;;11.17;31.94
31044;BME280;17710;52.520;13.352;2023-02-27T11:28:12;102607.22;;;11.23;31.73
31044;BME280;17710;52.520;13.352;2023-02-27T11:30:41;102595.97;;;11.00;31.77
31044;BME280;17710;52.520;13.352;2023-02-27T11:33:16;102592.34;;;11.13;32.19
31044;BME280;17710;52.520;13.352;2023-02-27T11:35:49;102593.38;;;10.94;32.13
31044;BME280;17710;52.520;13.352;2023-02-27T11:38:18;102604.09;;;10.74;32.60
31044;BME280;17710;52.520;13.352;2023-02-27T11:40:49;102607.75;;;10.53;33.01
31044;BME280;17710;52.520;13.352;2023-02-27T11:43:19;102598.88;;;10.63;31.88
31044;BME280;17710;52.520;13.352;2023-02-27T11:45:49;102597.19;;;10.50;32.27
31044;BME280;17710;52.520;13.352;2023-02-27T11:48:20;102591.06;;;10.48;32.58
31044;BME280;17710;52.520;13.352;2023-02-27T11:51:07;102588.34;;;10.57;32.87
31044;BME280;17710;52.520;13.352;2023-02-27T11:54:09;102584.94;;;10.38;32.98
31044;BME280;17710;52.520;13.352;2023-02-27T11:56:42;102584.88;;;10.48;33.48
31044;BME280;17710;52.520;13.352;2023-02-27T11:59:19;102576.22;;;10.12;33.44
31044;BME280;17710;52.520;13.352;2023-02-27T12:01:51;102583.22;;;10.30;33.34
31044;BME280;17710;52.520;13.352;2023-02-27T12:04:24;102589.38;;;10.35;33.61
31044;BME280;17710;52.520;13.352;2023-02-27T12:06:55;102588.53;;;10.30;34.42
31044;BME280;17710;52.520;13.352;2023-02-27T12:09:33;102586.66;;;10.49;34.07
31044;BME280;17710;52.520;13.352;2023-02-27T12:12:07;102585.00;;;10.25;33.70
31044;BME280;17710;52.520;13.352;2023-02-27T12:14:44;102585.97;;;10.01;32.93
31044;BME280;17710;52.520;13.352;2023-02-27T12:17:15;102583.41;;;9.81;33.94
31044;BME280;17710;52.520;13.352;2023-02-27T12:19:57;102586.91;;;9.80;34.25
31044;BME280;17710;52.520;13.352;2023-02-27T12:22:28;102584.28;;;9.83;33.45
31044;BME280;17710;52.520;13.352;2023-02-27T12:25:00;102583.41;;;9.72;32.42
31044;BME280;17710;52.520;13.352;2023-02-27T12:27:35;102578.16;;;9.69;32.42
31044;BME280;17710;52.520;13.352;2023-02-27T12:30:13;102585.09;;;9.94;32.01
31044;BME280;17710;52.520;13.352;2023-02-27T12:32:52;102579.69;;;10.31;31.02
31044;BME280;17710;52.520;13.352;2023-02-27T12:35:28;102590.16;;;10.46;31.12
31044;BME280;17710;52.520;13.352;2023-02-27T12:38:00;102581.50;;;10.20;31.18
31044;BME280;17710;52.520;13.352;2023-02-27T12:40:34;102585.03;;;10.22;31.38
31044;BME280;17710;52.520;13.352;2023-02-27T12:43:15;102589.44;;;10.23;30.98
31044;BME280;17710;52.520;13.352;2023-02-27T12:45:58;102580.63;;;10.13;31.50
31044;BME280;17710;52.520;13.352;2023-02-27T12:48:48;102582.38;;;10.20;31.60
31044;BME280;17710;52.520;13.352;2023-02-27T12:51:33;102583.22;;;10.27;31.69
31044;BME280;17710;52.520;13.352;2023-02-27T12:54:12;102578.00;;;10.06;30.50
31044;BME280;17710;52.520;13.352;2023-02-27T12:56:49;102582.41;;;10.10;30.33
31044;BME280;17710;52.520;13.352;2023-02-27T12:59:28;102581.56;;;10.02;30.70
31044;BME280;17710;52.520;13.352;2023-02-27T13:02:17;102581.50;;;10.14;31.33
31044;BME280;17710;52.520;13.352;2023-02-27T13:04:57;102583.19;;;10.36;31.11
31044;BME280;17710;52.520;13.352;2023-02-27T13:07:33;102580.34;;;10.63;30.84
31044;BME280;17710;52.520;13.352;2023-02-27T13:10:04;102588.19;;;10.82;29.56
31044;BME280;17710;52.520;13.352;2023-02-27T13:12:39;102584.50;;;10.98;29.07